Time;durP1;ratioP1;P1;durP2;ratioP2;P2;SDS_P1;SDS_P2;PMS_P1;PMS_P2;Temp;Humidity;BMP_temperature;BMP_pressure;BME280_temperature;BME280_humidity;BME280_pressure;Samples;Min_cycle;Max_cycle;Signal;HPM_P1;HPM_P2
2022/01/01 00:01:44;;;;;;;113.40;77.90;;;12.60;99.90;;;;;;5030518;28;20059;-79
2022/01/01 00:04:11;;;;;;;115.80;75.30;;;12.60;99.90;;;;;;4998159;28;20052;-79
2022/01/01 00:06:38;;;;;;;121.28;74.88;;;12.70;99.90;;;;;;5031912;28;20053;-81
2022/01/01 00:09:05;;;;;;;116.68;77.20;;;12.60;99.90;;;;;;5004752;28;20493;-80
2022/01/01 00:11:31;;;;;;;124.40;79.38;;;12.70;99.90;;;;;;5028333;28;20029;-77
2022/01/01 00:13:58;;;;;;;129.02;82.95;;;12.70;99.90;;;;;;5013924;28;20036;-77
2022/01/01 00:16:24;;;;;;;127.97;80.43;;;12.70;99.90;;;;;;5018927;28;20037;-79
2022/01/01 00:18:51;;;;;;;119.28;80.40;;;12.70;99.90;;;;;;5004353;28;20052;-78
2022/01/01 00:21:17;;;;;;;119.25;76.60;;;12.70;99.90;;;;;;5001348;28;20041;-79
2022/01/01 00:23:44;;;;;;;124.55;78.55;;;12.70;99.90;;;;;;5015874;28;20045;-79
2022/01/01 00:26:10;;;;;;;113.63;68.60;;;12.70;99.90;;;;;;4985836;28;20037;-79
2022/01/01 00:28:37;;;;;;;98.40;64.13;;;12.70;99.90;;;;;;5003125;28;20397;-79
2022/01/01 00:31:05;;;;;;;103.88;59.13;;;12.70;99.90;;;;;;4986405;28;20045;-79
2022/01/01 00:33:31;;;;;;;99.28;56.67;;;12.70;99.90;;;;;;5047305;28;20337;-79
2022/01/01 00:35:58;;;;;;;89.25;54.50;;;12.70;99.90;;;;;;5017981;28;20033;-79
2022/01/01 00:38:24;;;;;;;85.50;51.33;;;12.70;99.90;;;;;;5017784;28;20042;-79
2022/01/01 00:40:51;;;;;;;92.22;55.88;;;12.70;99.90;;;;;;4985563;28;20037;-80
2022/01/01 00:43:21;;;;;;;87.05;51.90;;;12.70;99.90;;;;;;5013186;28;20029;-79
2022/01/01 00:45:47;;;;;;;85.03;50.47;;;12.70;99.90;;;;;;4970238;28;20041;-79
2022/01/01 00:48:13;;;;;;;78.07;46.15;;;12.70;99.90;;;;;;4987668;28;20029;-79
2022/01/01 00:50:40;;;;;;;74.18;44.97;;;12.70;99.90;;;;;;5002445;28;20045;-78
2022/01/01 00:53:07;;;;;;;69.10;39.80;;;12.70;99.90;;;;;;5015506;28;20034;-78
2022/01/01 00:55:33;;;;;;;67.55;37.67;;;12.70;99.90;;;;;;4999535;28;20500;-78
2022/01/01 00:58:00;;;;;;;54.28;36.63;;;12.70;99.90;;;;;;5001222;28;20029;-78
2022/01/01 01:00:27;;;;;;;69.43;37.60;;;12.70;99.90;;;;;;5015726;28;20045;-77
2022/01/01 01:02:53;;;;;;;58.45;35.30;;;12.70;99.90;;;;;;5017180;28;20064;-79
2022/01/01 01:05:20;;;;;;;73.35;37.65;;;12.70;99.90;;;;;;5032926;28;20064;-78
2022/01/01 01:07:46;;;;;;;56.08;36.63;;;12.70;99.90;;;;;;4990824;28;20358;-79
2022/01/01 01:10:14;;;;;;;63.90;37.33;;;12.70;99.90;;;;;;5019168;28;20038;-82
2022/01/01 01:12:47;;;;;;;61.75;37.53;;;12.70;99.90;;;;;;5017378;28;20033;-80
2022/01/01 01:15:17;;;;;;;71.15;38.53;;;12.70;99.90;;;;;;5015765;28;20265;-77
2022/01/01 01:17:46;;;;;;;59.55;34.00;;;12.70;99.90;;;;;;5016669;28;20032;-78
2022/01/01 01:20:13;;;;;;;57.63;37.78;;;12.70;99.90;;;;;;5005599;28;20052;-81
2022/01/01 01:22:40;;;;;;;69.18;40.00;;;12.70;99.90;;;;;;5032623;28;20064;-82
2022/01/01 01:25:07;;;;;;;65.88;38.95;;;12.70;99.90;;;;;;5016471;28;20042;-78
2022/01/01 01:27:35;;;;;;;68.03;40.38;;;12.70;99.90;;;;;;5004879;28;20601;-81
2022/01/01 01:30:05;;;;;;;63.22;41.70;;;12.70;99.90;;;;;;5019016;28;20041;-81
2022/01/01 01:32:32;;;;;;;68.65;42.75;;;12.70;99.90;;;;;;5014325;28;20038;-81
2022/01/01 01:34:58;;;;;;;72.30;41.05;;;12.70;99.90;;;;;;4985665;28;20496;-80
2022/01/01 01:37:25;;;;;;;62.13;38.22;;;12.60;99.90;;;;;;5027612;28;20036;-78
2022/01/01 01:39:51;;;;;;;62.85;38.45;;;12.60;99.90;;;;;;4985204;28;20042;-82
2022/01/01 01:42:18;;;;;;;68.38;39.60;;;12.60;99.90;;;;;;5015160;28;20500;-77
2022/01/01 01:44:47;;;;;;;63.97;38.60;;;12.60;99.90;;;;;;5012669;28;20022;-78
2022/01/01 01:47:16;;;;;;;68.50;40.45;;;12.60;99.90;;;;;;5015314;28;20453;-78
2022/01/01 01:49:46;;;;;;;73.40;42.33;;;12.60;99.90;;;;;;4998442;28;20045;-83
2022/01/01 01:52:15;;;;;;;76.97;44.30;;;12.60;99.90;;;;;;5014762;28;20041;-78
2022/01/01 01:54:43;;;;;;;70.90;43.08;;;12.60;99.90;;;;;;5033900;28;20060;-83
2022/01/01 01:57:09;;;;;;;71.80;43.17;;;12.60;99.90;;;;;;5029943;28;20133;-78
2022/01/01 01:59:36;;;;;;;65.30;43.35;;;12.60;99.90;;;;;;5003073;28;20488;-82
2022/01/01 02:02:02;;;;;;;68.50;43.40;;;12.60;99.90;;;;;;5003759;28;20037;-78
2022/01/01 02:04:29;;;;;;;79.68;48.60;;;12.60;99.90;;;;;;5012959;28;20032;-79
2022/01/01 02:06:56;;;;;;;76.75;46.03;;;12.60;99.90;;;;;;5002195;28;20036;-79
2022/01/01 02:09:22;;;;;;;70.20;43.58;;;12.60;99.90;;;;;;4997836;28;20045;-79
2022/01/01 02:11:51;;;;;;;63.45;40.10;;;12.60;99.90;;;;;;5014709;28;20037;-79
2022/01/01 02:14:33;;;;;;;74.72;43.75;;;12.60;99.90;;;;;;5017620;28;20048;-83
2022/01/01 02:19:28;;;;;;;65.88;37.72;;;12.60;99.90;;;;;;4987072;28;20080;-83
2022/01/01 02:21:59;;;;;;;71.25;39.78;;;12.60;99.90;;;;;;5028749;28;20034;-79
2022/01/01 02:24:26;;;;;;;69.72;38.00;;;12.60;99.90;;;;;;5012834;28;20059;-78
2022/01/01 02:26:53;;;;;;;64.63;35.08;;;12.60;99.90;;;;;;5016587;28;20044;-82
2022/01/01 02:29:20;;;;;;;54.58;30.88;;;12.60;99.90;;;;;;5018040;28;20037;-82
2022/01/01 02:31:47;;;;;;;54.88;30.00;;;12.60;99.90;;;;;;4999315;28;20041;-82
2022/01/01 02:34:13;;;;;;;62.42;34.17;;;12.60;99.90;;;;;;5017626;28;20037;-82
2022/01/01 02:36:42;;;;;;;53.85;31.13;;;12.60;99.90;;;;;;5002905;28;20049;-79
2022/01/01 02:39:23;;;;;;;61.42;31.38;;;12.60;99.90;;;;;;5001585;28;20036;-78
2022/01/01 02:41:52;;;;;;;63.55;31.35;;;12.60;99.90;;;;;;5011125;28;20042;-78
2022/01/01 02:44:21;;;;;;;54.28;30.73;;;12.60;99.90;;;;;;5014754;28;20392;-79
2022/01/01 02:46:48;;;;;;;46.53;28.70;;;12.60;99.90;;;;;;5015173;28;20026;-78
2022/01/01 02:49:14;;;;;;;55.50;30.52;;;12.60;99.90;;;;;;5014473;28;20064;-79
2022/01/01 02:51:41;;;;;;;55.97;28.73;;;12.60;99.90;;;;;;5015842;28;20045;-78
2022/01/01 02:54:07;;;;;;;57.05;31.45;;;12.60;99.90;;;;;;5000016;28;20045;-79
2022/01/01 02:56:34;;;;;;;52.53;28.35;;;12.60;99.90;;;;;;5012777;28;20022;-78
2022/01/01 02:59:00;;;;;;;59.85;32.13;;;12.60;99.90;;;;;;5002510;28;20037;-79
2022/01/01 03:01:26;;;;;;;53.80;28.23;;;12.60;99.90;;;;;;5012442;28;20042;-78
2022/01/01 03:03:53;;;;;;;56.50;30.83;;;12.60;99.90;;;;;;5001263;28;20045;-78
2022/01/01 03:06:20;;;;;;;49.13;27.08;;;12.60;99.90;;;;;;5031313;28;20050;-83
2022/01/01 03:08:48;;;;;;;53.88;28.48;;;12.60;99.90;;;;;;5021123;28;20045;-83
2022/01/01 03:11:15;;;;;;;50.10;27.98;;;12.60;99.90;;;;;;5013440;28;20029;-84
2022/01/01 03:13:42;;;;;;;44.85;25.15;;;12.60;99.90;;;;;;4999866;28;20041;-83
2022/01/01 03:16:09;;;;;;;45.17;24.83;;;12.60;99.90;;;;;;5011779;28;20501;-79
2022/01/01 03:18:36;;;;;;;48.03;25.13;;;12.50;99.90;;;;;;5030953;28;20501;-79
2022/01/01 03:21:02;;;;;;;38.65;22.95;;;12.50;99.90;;;;;;4998225;28;20034;-83
2022/01/01 03:23:29;;;;;;;51.70;27.10;;;12.50;99.90;;;;;;5002678;28;20503;-84
2022/01/01 03:25:55;;;;;;;46.33;26.92;;;12.50;99.90;;;;;;4987935;28;20033;-83
2022/01/01 03:28:22;;;;;;;47.75;27.88;;;12.50;99.90;;;;;;5003901;28;20037;-84
2022/01/01 03:30:48;;;;;;;50.85;30.08;;;12.50;99.90;;;;;;5008483;28;20511;-84
2022/01/01 03:33:15;;;;;;;50.33;27.75;;;12.60;99.90;;;;;;5021529;28;20037;-84
2022/01/01 03:35:41;;;;;;;48.42;27.27;;;12.60;99.90;;;;;;4991967;28;20034;-84
2022/01/01 03:38:08;;;;;;;50.58;28.80;;;12.50;99.90;;;;;;5003765;28;20402;-84
2022/01/01 03:40:34;;;;;;;43.72;25.23;;;12.60;99.90;;;;;;5037408;28;20388;-83
2022/01/01 03:43:01;;;;;;;33.75;20.00;;;12.60;99.90;;;;;;5007372;28;20041;-84
2022/01/01 03:45:27;;;;;;;44.13;25.95;;;12.60;99.90;;;;;;4991528;28;20060;-84
2022/01/01 03:47:54;;;;;;;46.08;26.50;;;12.60;99.90;;;;;;4975456;28;20041;-84
2022/01/01 03:50:20;;;;;;;48.92;28.58;;;12.60;99.90;;;;;;5007481;28;20037;-84
2022/01/01 03:52:47;;;;;;;56.25;31.33;;;12.60;99.90;;;;;;4976092;28;20045;-84
2022/01/01 03:55:14;;;;;;;54.78;30.40;;;12.60;99.90;;;;;;5023213;28;20362;-84
2022/01/01 03:57:41;;;;;;;45.10;26.23;;;12.60;99.90;;;;;;5022144;28;20033;-84
2022/01/01 04:00:13;;;;;;;47.78;29.85;;;12.60;99.90;;;;;;4988868;28;20485;-84
2022/01/01 04:02:42;;;;;;;43.00;26.65;;;12.60;99.90;;;;;;5005186;28;20046;-83
2022/01/01 04:05:09;;;;;;;54.22;30.73;;;12.60;99.90;;;;;;5004296;28;20638;-84
2022/01/01 04:07:36;;;;;;;51.15;29.88;;;12.60;99.90;;;;;;5008721;28;20029;-83
2022/01/01 04:10:03;;;;;;;55.35;31.55;;;12.60;99.90;;;;;;5003769;28;20408;-84
2022/01/01 04:12:30;;;;;;;48.97;29.35;;;12.60;99.90;;;;;;4989126;28;20057;-84
2022/01/01 04:14:59;;;;;;;47.55;27.83;;;12.60;99.90;;;;;;4988760;28;20036;-84
2022/01/01 04:17:27;;;;;;;51.72;29.25;;;12.60;99.90;;;;;;5007726;28;21093;-84
2022/01/01 04:19:54;;;;;;;43.78;26.10;;;12.60;99.90;;;;;;5021864;28;20018;-84
2022/01/01 04:22:20;;;;;;;46.63;27.08;;;12.60;99.90;;;;;;4987831;28;20061;-83
2022/01/01 04:24:46;;;;;;;43.08;28.05;;;12.70;99.90;;;;;;5021777;28;20052;-84
2022/01/01 04:27:13;;;;;;;50.97;29.60;;;12.60;99.90;;;;;;5007852;28;20040;-83
2022/01/01 04:29:41;;;;;;;47.67;26.60;;;12.60;99.90;;;;;;5024054;28;20052;-84
2022/01/01 04:32:09;;;;;;;44.30;27.20;;;12.70;99.90;;;;;;5001295;28;20045;-83
2022/01/01 04:34:35;;;;;;;50.83;28.75;;;12.60;99.90;;;;;;5008249;28;20715;-84
2022/01/01 04:37:07;;;;;;;51.42;26.85;;;12.70;99.90;;;;;;5007046;28;20045;-83
2022/01/01 04:39:34;;;;;;;52.15;28.60;;;12.60;99.90;;;;;;5046996;28;20034;-84
2022/01/01 04:42:00;;;;;;;39.78;24.88;;;12.70;99.90;;;;;;5003320;28;20044;-84
2022/01/01 04:44:27;;;;;;;42.78;24.60;;;12.70;99.90;;;;;;5019863;28;20077;-84
2022/01/01 04:46:53;;;;;;;44.70;24.17;;;12.60;99.90;;;;;;4990567;28;20037;-84
2022/01/01 04:49:21;;;;;;;41.40;24.85;;;12.60;99.90;;;;;;5007041;28;20517;-83
2022/01/01 04:51:48;;;;;;;41.25;24.33;;;12.70;99.90;;;;;;5002076;28;20045;-83
2022/01/01 04:54:16;;;;;;;42.95;22.92;;;12.70;99.90;;;;;;4976712;28;20037;-83
2022/01/01 04:56:45;;;;;;;43.50;22.88;;;12.70;99.90;;;;;;5017264;28;20030;-84
2022/01/01 04:59:13;;;;;;;32.45;18.85;;;12.70;99.90;;;;;;5016286;28;20036;-83
2022/01/01 05:01:40;;;;;;;35.47;20.25;;;12.70;99.90;;;;;;4986627;28;20044;-83
2022/01/01 05:04:07;;;;;;;42.17;22.40;;;12.70;99.90;;;;;;5002411;28;20044;-83
2022/01/01 05:06:34;;;;;;;32.50;17.65;;;12.70;99.90;;;;;;5019221;28;20416;-78
2022/01/01 05:09:01;;;;;;;33.95;18.70;;;12.60;99.90;;;;;;5016350;28;20029;-78
2022/01/01 05:11:27;;;;;;;32.28;17.98;;;12.70;99.90;;;;;;5028829;28;20044;-78
2022/01/01 05:13:54;;;;;;;33.47;17.63;;;12.70;99.90;;;;;;5017454;28;20041;-78
2022/01/01 05:16:21;;;;;;;31.88;18.48;;;12.70;99.90;;;;;;4997465;28;20771;-78
2022/01/01 05:18:47;;;;;;;32.05;16.70;;;12.70;99.90;;;;;;4998784;28;20476;-78
2022/01/01 05:21:14;;;;;;;31.48;16.25;;;12.70;99.90;;;;;;4985400;28;20034;-78
2022/01/01 05:23:41;;;;;;;30.85;16.60;;;12.70;99.90;;;;;;4996471;28;20773;-78
2022/01/01 05:26:08;;;;;;;30.95;15.35;;;12.70;99.90;;;;;;4988110;28;20033;-78
2022/01/01 05:28:34;;;;;;;23.63;12.75;;;12.70;99.90;;;;;;4990021;28;20060;-78
2022/01/01 05:31:00;;;;;;;23.63;13.13;;;12.70;99.90;;;;;;4986105;28;20026;-79
2022/01/01 05:33:27;;;;;;;28.52;14.93;;;12.70;99.90;;;;;;5000632;28;20044;-78
2022/01/01 05:35:53;;;;;;;30.40;14.57;;;12.70;99.90;;;;;;5001267;28;20042;-78
2022/01/01 05:38:20;;;;;;;26.25;14.13;;;12.70;99.90;;;;;;5017924;28;20029;-78
2022/01/01 05:40:46;;;;;;;26.52;14.18;;;12.70;99.90;;;;;;5018607;28;20393;-78
2022/01/01 05:43:13;;;;;;;24.90;12.00;;;12.70;99.90;;;;;;5018162;28;20084;-83
2022/01/01 05:45:42;;;;;;;26.48;13.50;;;12.70;99.90;;;;;;4985454;28;20132;-79
2022/01/01 05:48:09;;;;;;;26.83;12.23;;;12.70;99.90;;;;;;4985267;28;20029;-78
2022/01/01 05:50:36;;;;;;;24.02;12.55;;;12.70;99.90;;;;;;5014432;28;20026;-78
2022/01/01 05:53:03;;;;;;;25.48;13.30;;;12.70;99.90;;;;;;4999499;28;20037;-78
2022/01/01 05:55:30;;;;;;;22.80;11.77;;;12.70;99.90;;;;;;5016755;28;20369;-78
2022/01/01 05:57:56;;;;;;;22.67;11.43;;;12.70;99.90;;;;;;5003539;28;20018;-78
2022/01/01 06:00:23;;;;;;;24.23;11.60;;;12.70;99.90;;;;;;4998693;28;20057;-79
2022/01/01 06:02:49;;;;;;;20.83;10.63;;;12.70;99.90;;;;;;5030667;28;20041;-79
2022/01/01 06:05:17;;;;;;;21.98;10.50;;;12.70;99.90;;;;;;5019027;28;20060;-81
2022/01/01 06:07:44;;;;;;;17.63;9.02;;;12.70;99.90;;;;;;5003876;28;20104;-81
2022/01/01 06:10:10;;;;;;;23.02;9.57;;;12.70;99.90;;;;;;5015690;28;20610;-81
2022/01/01 06:12:40;;;;;;;21.75;10.07;;;12.70;99.90;;;;;;4986377;28;20055;-81
2022/01/01 06:15:07;;;;;;;23.88;10.35;;;12.70;99.90;;;;;;5017716;28;20343;-82
2022/01/01 06:17:33;;;;;;;24.95;10.75;;;12.70;99.90;;;;;;5012060;28;20034;-81
2022/01/01 06:20:00;;;;;;;21.70;10.02;;;12.70;99.90;;;;;;5001661;28;20482;-82
2022/01/01 06:22:26;;;;;;;17.38;8.95;;;12.70;99.90;;;;;;4987348;28;20036;-81
2022/01/01 06:24:53;;;;;;;19.63;8.98;;;12.70;99.90;;;;;;5003613;28;20042;-79
2022/01/01 06:27:19;;;;;;;13.88;7.75;;;12.70;99.90;;;;;;5019632;28;20026;-79
2022/01/01 06:29:46;;;;;;;18.33;8.98;;;12.70;99.90;;;;;;5000094;28;20053;-79
2022/01/01 06:32:12;;;;;;;19.25;11.25;;;12.70;99.90;;;;;;5017564;28;20393;-79
2022/01/01 06:34:39;;;;;;;20.33;10.15;;;12.70;99.90;;;;;;4982835;28;20051;-79
2022/01/01 06:37:06;;;;;;;17.50;9.63;;;12.70;99.90;;;;;;4985400;28;20036;-79
2022/01/01 06:39:32;;;;;;;20.73;12.02;;;12.70;99.90;;;;;;4986799;28;20041;-79
2022/01/01 06:41:59;;;;;;;18.33;10.23;;;12.70;99.90;;;;;;4987581;28;20033;-81
2022/01/01 06:44:25;;;;;;;21.90;12.10;;;12.70;99.90;;;;;;5019507;28;20041;-79
2022/01/01 06:46:53;;;;;;;24.50;12.40;;;12.70;99.90;;;;;;4982177;28;20043;-79
2022/01/01 06:49:19;;;;;;;21.42;11.13;;;12.70;99.90;;;;;;5029528;28;20041;-79
2022/01/01 06:51:46;;;;;;;22.67;11.70;;;12.70;99.90;;;;;;5000032;28;20047;-79
2022/01/01 06:54:13;;;;;;;16.48;9.43;;;12.60;99.90;;;;;;5017954;28;20396;-79
2022/01/01 06:56:39;;;;;;;22.55;10.93;;;12.50;99.90;;;;;;4984397;28;20030;-81
2022/01/01 06:59:08;;;;;;;21.48;11.90;;;12.30;99.90;;;;;;4967558;28;20531;-80
2022/01/01 07:01:35;;;;;;;19.92;10.43;;;12.20;99.90;;;;;;5011446;28;20040;-79
2022/01/01 07:04:01;;;;;;;19.95;11.05;;;12.10;99.90;;;;;;5002808;28;20030;-79
2022/01/01 07:06:28;;;;;;;25.05;11.05;;;12.00;99.90;;;;;;5020960;28;20378;-81
2022/01/01 07:08:54;;;;;;;22.58;11.27;;;11.90;99.90;;;;;;4999248;28;20052;-81
2022/01/01 07:11:21;;;;;;;23.08;11.00;;;11.90;99.90;;;;;;5021875;28;20381;-79
2022/01/01 07:13:47;;;;;;;22.42;9.52;;;11.80;99.90;;;;;;4986011;28;20042;-79
2022/01/01 07:16:17;;;;;;;14.77;8.70;;;11.70;99.90;;;;;;5020060;28;20030;-78
2022/01/01 07:18:44;;;;;;;19.95;10.38;;;11.70;99.90;;;;;;5016602;28;20033;-78
2022/01/01 07:21:10;;;;;;;23.58;9.70;;;11.70;99.90;;;;;;5004573;28;20036;-81
2022/01/01 07:23:37;;;;;;;15.57;9.27;;;11.60;99.90;;;;;;4967484;28;20041;-80
2022/01/01 07:26:03;;;;;;;16.95;8.73;;;11.50;99.90;;;;;;5016996;28;20052;-80
2022/01/01 07:28:30;;;;;;;16.60;8.55;;;11.60;99.90;;;;;;5005520;28;20033;-81
2022/01/01 07:30:57;;;;;;;15.52;7.75;;;11.60;99.90;;;;;;4988983;28;20044;-81
2022/01/01 07:33:23;;;;;;;20.83;8.30;;;11.60;99.90;;;;;;5000141;28;20809;-81
2022/01/01 07:35:49;;;;;;;15.90;6.15;;;11.70;99.90;;;;;;5020149;28;20037;-79
2022/01/01 07:38:16;;;;;;;12.95;5.88;;;11.70;99.90;;;;;;5020436;28;21276;-78
2022/01/01 07:40:42;;;;;;;14.32;6.68;;;11.80;99.90;;;;;;5002489;28;20041;-80
2022/01/01 07:43:13;;;;;;;15.52;6.55;;;11.90;99.90;;;;;;5015859;28;20046;-78
2022/01/01 07:45:40;;;;;;;16.30;6.18;;;11.80;99.90;;;;;;5005536;28;20491;-82
2022/01/01 07:48:08;;;;;;;19.23;6.63;;;11.90;99.90;;;;;;5018139;28;20500;-78
2022/01/01 07:50:35;;;;;;;14.52;6.57;;;11.90;99.90;;;;;;5006515;28;20476;-80
2022/01/01 07:53:02;;;;;;;17.67;8.70;;;11.80;99.90;;;;;;5003771;28;20041;-80
2022/01/01 07:55:29;;;;;;;15.13;6.35;;;11.80;99.90;;;;;;5006456;28;20040;-80
2022/01/01 07:57:55;;;;;;;19.10;9.15;;;11.70;99.90;;;;;;5008505;28;20033;-81
2022/01/01 08:00:22;;;;;;;22.08;7.38;;;11.70;99.90;;;;;;4988126;28;20493;-80
2022/01/01 08:02:48;;;;;;;17.02;6.45;;;11.70;99.90;;;;;;4986996;28;20044;-80
2022/01/01 08:05:16;;;;;;;14.27;6.07;;;11.70;99.90;;;;;;4973656;28;20520;-80
2022/01/01 08:07:44;;;;;;;19.23;7.40;;;11.80;99.90;;;;;;5007041;28;20044;-80
2022/01/01 08:10:12;;;;;;;15.70;6.32;;;11.80;99.90;;;;;;5018581;28;20060;-81
2022/01/01 08:12:41;;;;;;;13.30;5.63;;;11.80;99.90;;;;;;4986279;28;20029;-80
2022/01/01 08:15:08;;;;;;;13.18;5.13;;;11.80;99.90;;;;;;5016623;28;20034;-81
2022/01/01 08:17:34;;;;;;;14.48;5.18;;;11.80;99.90;;;;;;4987560;28;20037;-81
2022/01/01 08:20:01;;;;;;;14.48;5.63;;;11.80;99.90;;;;;;4990858;28;20040;-81
2022/01/01 08:22:29;;;;;;;15.20;6.03;;;11.80;99.90;;;;;;5004187;28;20034;-81
2022/01/01 08:24:55;;;;;;;17.92;5.82;;;11.80;99.90;;;;;;4990802;28;20496;-81
2022/01/01 08:27:22;;;;;;;17.23;6.18;;;11.80;99.90;;;;;;4974520;28;20038;-80
2022/01/01 08:29:48;;;;;;;12.43;5.72;;;11.80;99.90;;;;;;5023187;28;20057;-81
2022/01/01 08:32:15;;;;;;;17.48;5.85;;;11.80;99.90;;;;;;5002946;28;20049;-81
2022/01/01 08:34:41;;;;;;;14.30;4.78;;;11.80;99.90;;;;;;4974247;28;20025;-81
2022/01/01 08:37:08;;;;;;;12.38;5.10;;;11.80;99.90;;;;;;5005668;28;20026;-81
2022/01/01 08:39:34;;;;;;;12.55;5.32;;;11.90;99.90;;;;;;4970788;28;20038;-81
2022/01/01 08:42:01;;;;;;;12.55;4.15;;;12.00;99.90;;;;;;5013690;28;20037;-81
2022/01/01 08:44:28;;;;;;;14.57;4.40;;;12.10;99.90;;;;;;4989761;28;20017;-81
2022/01/01 08:46:57;;;;;;;12.00;3.72;;;12.20;99.90;;;;;;4988972;28;20033;-81
2022/01/01 08:49:23;;;;;;;8.43;3.95;;;12.30;99.90;;;;;;5000227;28;20066;-81
2022/01/01 08:51:49;;;;;;;12.45;4.47;;;12.40;99.90;;;;;;4986949;28;20064;-81
2022/01/01 08:54:16;;;;;;;13.68;4.72;;;12.50;99.90;;;;;;4994936;28;20048;-83
2022/01/01 08:56:43;;;;;;;16.08;4.65;;;12.60;99.90;;;;;;4988288;28;20037;-78
2022/01/01 08:59:09;;;;;;;8.85;3.67;;;12.60;99.90;;;;;;5006225;28;20431;-82
2022/01/01 09:01:36;;;;;;;16.17;7.22;;;12.70;99.90;;;;;;5000499;28;20040;-84
2022/01/01 09:04:03;;;;;;;11.50;5.63;;;12.70;99.90;;;;;;4992263;28;20056;-84
2022/01/01 09:06:30;;;;;;;12.82;6.30;;;12.70;99.90;;;;;;4993060;28;20061;-83
2022/01/01 09:08:56;;;;;;;11.80;4.82;;;12.70;99.90;;;;;;5018257;28;20030;-81
2022/01/01 09:11:23;;;;;;;15.43;4.72;;;12.80;99.90;;;;;;4995063;28;20049;-84
2022/01/01 09:13:49;;;;;;;13.25;5.25;;;12.80;99.90;;;;;;5001924;28;20048;-83
2022/01/01 09:16:18;;;;;;;16.13;6.65;;;12.80;99.90;;;;;;5008381;28;20045;-83
2022/01/01 09:18:46;;;;;;;17.27;7.93;;;12.80;99.90;;;;;;4988898;28;20025;-79
2022/01/01 09:21:14;;;;;;;16.20;5.72;;;12.80;99.90;;;;;;4986804;28;20036;-77
2022/01/01 09:23:43;;;;;;;10.95;4.95;;;12.90;99.90;;;;;;5009563;28;20041;-78
2022/01/01 09:26:10;;;;;;;10.93;3.75;;;12.90;99.90;;;;;;5019321;28;20037;-78
2022/01/01 09:28:36;;;;;;;9.75;3.45;;;13.00;99.90;;;;;;5008326;28;20477;-77
2022/01/01 09:31:03;;;;;;;10.95;3.83;;;13.10;99.90;;;;;;5002970;28;20029;-77
2022/01/01 09:33:31;;;;;;;9.05;3.55;;;13.10;99.90;;;;;;5002375;28;20464;-79
2022/01/01 09:35:59;;;;;;;9.43;3.67;;;13.10;99.90;;;;;;5000759;28;20029;-77
2022/01/01 09:38:26;;;;;;;8.80;4.00;;;13.20;99.90;;;;;;5001886;28;20611;-77
2022/01/01 09:40:54;;;;;;;10.77;4.47;;;13.20;99.90;;;;;;5017584;28;20036;-77
2022/01/01 09:43:22;;;;;;;9.95;4.05;;;13.20;99.90;;;;;;4987329;28;20038;-77
2022/01/01 09:45:50;;;;;;;9.70;4.35;;;13.30;99.90;;;;;;5014084;28;20041;-78
2022/01/01 09:48:19;;;;;;;9.98;3.38;;;13.30;99.90;;;;;;5018044;28;20033;-77
2022/01/01 09:50:49;;;;;;;14.40;4.05;;;13.30;99.90;;;;;;5015726;28;20025;-85
2022/01/01 09:53:20;;;;;;;10.30;4.60;;;13.30;99.90;;;;;;5019886;28;20052;-84
2022/01/01 09:55:47;;;;;;;11.32;4.07;;;13.30;99.90;;;;;;5019785;28;20499;-86
2022/01/01 09:58:13;;;;;;;11.95;3.83;;;13.30;99.90;;;;;;5008824;28;20449;-86
2022/01/01 10:00:40;;;;;;;7.05;2.67;;;13.30;99.90;;;;;;4988605;28;20038;-78
2022/01/01 10:03:13;;;;;;;11.13;3.80;;;13.30;99.90;;;;;;4969480;28;20489;-78
2022/01/01 10:06:05;;;;;;;8.35;3.50;;;13.40;99.90;;;;;;4990775;28;20057;-78
2022/01/01 10:08:33;;;;;;;7.70;3.30;;;13.40;99.90;;;;;;4988491;28;20532;-86
2022/01/01 10:10:59;;;;;;;8.68;3.13;;;13.40;99.90;;;;;;5003990;28;20045;-84
2022/01/01 10:13:28;;;;;;;8.38;3.40;;;13.50;99.90;;;;;;5016513;28;20908;-83
2022/01/01 10:15:56;;;;;;;7.75;2.95;;;13.50;99.90;;;;;;5003029;28;20806;-77
2022/01/01 10:18:31;;;;;;;8.77;2.75;;;13.50;99.90;;;;;;5018793;28;20025;-81
2022/01/01 10:21:02;;;;;;;11.55;3.88;;;13.50;99.90;;;;;;5005627;28;20040;-81
2022/01/01 10:23:31;;;;;;;9.90;3.63;;;13.50;99.90;;;;;;5027057;28;20038;-79
2022/01/01 10:29:11;;;;;;;9.75;4.07;;;13.60;99.90;;;;;;5015855;28;20135;-78
2022/01/01 10:31:39;;;;;;;9.02;3.33;;;13.60;99.90;;;;;;4998828;28;20492;-77
2022/01/01 10:34:14;;;;;;;8.77;3.97;;;13.70;99.90;;;;;;5016975;28;20494;-77
2022/01/01 10:36:46;;;;;;;8.23;4.15;;;13.80;99.90;;;;;;4982617;28;20377;-79
2022/01/01 10:39:15;;;;;;;10.68;3.90;;;13.80;99.90;;;;;;5020421;28;20022;-78
2022/01/01 10:41:47;;;;;;;15.10;8.02;;;13.90;99.90;;;;;;4976959;28;20604;-81
2022/01/01 10:44:15;;;;;;;16.10;7.93;;;13.90;99.90;;;;;;4994423;28;20037;-80
2022/01/01 10:46:42;;;;;;;11.65;6.43;;;13.90;99.90;;;;;;4993647;28;20037;-81
2022/01/01 10:50:03;;;;;;;11.63;6.22;;;13.90;99.90;;;;;;5006116;28;20428;-81
2022/01/01 10:52:28;;;;;;;8.65;5.07;;;14.00;99.90;;;;;;5017708;28;20049;-81
2022/01/01 10:55:00;;;;;;;8.95;4.65;;;13.90;99.90;;;;;;5019092;28;22717;-78
2022/01/01 10:57:38;;;;;;;9.02;4.55;;;14.00;99.90;;;;;;5035779;28;20040;-76
2022/01/01 11:00:16;;;;;;;7.47;4.88;;;14.00;99.90;;;;;;5032212;28;20025;-79
2022/01/01 11:02:57;;;;;;;8.05;4.38;;;14.00;99.90;;;;;;5016626;28;20692;-78
2022/01/01 11:05:35;;;;;;;13.07;5.75;;;14.00;99.90;;;;;;5023348;28;20038;-80
2022/01/01 11:08:03;;;;;;;11.45;4.72;;;14.00;99.90;;;;;;5007514;28;20048;-80
2022/01/01 11:10:31;;;;;;;9.13;4.32;;;14.00;99.90;;;;;;4991300;28;20034;-81
2022/01/01 11:12:59;;;;;;;10.15;4.65;;;14.00;99.90;;;;;;5002633;28;20350;-79
2022/01/01 11:15:27;;;;;;;8.73;4.00;;;14.10;99.90;;;;;;4990167;28;20034;-80
2022/01/01 11:17:56;;;;;;;8.10;4.53;;;14.10;99.90;;;;;;5021684;28;20571;-80
2022/01/01 11:20:24;;;;;;;11.85;4.50;;;14.10;99.90;;;;;;4989152;28;20037;-80
2022/01/01 11:22:51;;;;;;;10.25;4.70;;;14.10;99.90;;;;;;4989823;28;20033;-80
2022/01/01 11:25:18;;;;;;;9.80;4.60;;;14.10;99.90;;;;;;5033605;28;20042;-80
2022/01/01 11:27:46;;;;;;;11.90;5.05;;;14.10;99.90;;;;;;5005345;28;20044;-79
2022/01/01 11:30:14;;;;;;;10.23;4.63;;;14.10;99.90;;;;;;5004488;28;20057;-80
2022/01/01 11:32:51;;;;;;;8.90;4.22;;;14.10;99.90;;;;;;5031508;28;20381;-79
2022/01/01 11:35:22;;;;;;;6.07;3.88;;;14.10;99.90;;;;;;5005122;28;20029;-80
2022/01/01 11:38:04;;;;;;;7.03;4.05;;;14.10;99.90;;;;;;5022015;28;20033;-80
2022/01/01 11:41:04;;;;;;;11.02;4.45;;;14.10;99.90;;;;;;5052418;28;20026;-80
2022/01/01 11:43:47;;;;;;;8.55;4.22;;;14.10;99.90;;;;;;5005602;28;20391;-80
2022/01/01 11:46:15;;;;;;;8.63;4.00;;;14.10;99.90;;;;;;5007747;28;20500;-81
2022/01/01 11:48:51;;;;;;;7.85;3.90;;;14.10;99.90;;;;;;5003574;28;20042;-80
2022/01/01 11:51:38;;;;;;;6.90;3.45;;;14.10;99.90;;;;;;5017970;28;20052;-80
2022/01/01 11:54:14;;;;;;;6.90;3.58;;;14.20;99.90;;;;;;5004076;28;20041;-82
2022/01/01 11:56:50;;;;;;;7.88;3.47;;;14.20;99.90;;;;;;5028782;28;20037;-81
2022/01/01 11:59:36;;;;;;;7.28;4.00;;;14.20;99.90;;;;;;4986952;28;20034;-81
2022/01/01 12:02:05;;;;;;;7.20;3.83;;;14.20;99.90;;;;;;4999919;28;20025;-81
2022/01/01 12:04:38;;;;;;;8.88;3.80;;;14.20;99.90;;;;;;4987764;28;20042;-81
2022/01/01 12:07:12;;;;;;;11.23;4.47;;;14.20;99.90;;;;;;5004145;28;20053;-81
2022/01/01 12:10:03;;;;;;;9.65;5.50;;;14.20;99.90;;;;;;5019695;28;20045;-80
2022/01/01 12:12:51;;;;;;;11.38;4.80;;;14.20;99.90;;;;;;5018254;28;20681;-80
2022/01/01 12:15:26;;;;;;;10.40;4.25;;;14.20;99.90;;;;;;5002833;28;20045;-80
2022/01/01 12:17:57;;;;;;;9.68;4.90;;;14.20;99.90;;;;;;5036188;28;20485;-80
2022/01/01 12:20:31;;;;;;;8.30;4.20;;;14.30;99.90;;;;;;5018443;28;20033;-85
2022/01/01 12:23:00;;;;;;;5.65;3.40;;;14.30;99.90;;;;;;5036827;28;20017;-80
2022/01/01 12:25:30;;;;;;;9.23;3.70;;;14.30;99.90;;;;;;5035575;28;20034;-80
2022/01/01 12:28:01;;;;;;;6.80;3.25;;;14.40;99.90;;;;;;5008723;28;20044;-80
2022/01/01 12:30:37;;;;;;;4.95;2.72;;;14.40;99.90;;;;;;5020925;28;20044;-81
2022/01/01 12:33:05;;;;;;;9.77;3.78;;;14.50;99.90;;;;;;5002100;28;20496;-80
2022/01/01 12:35:44;;;;;;;6.65;3.70;;;14.50;99.90;;;;;;4989559;28;20037;-81
2022/01/01 12:38:13;;;;;;;5.78;3.10;;;14.60;99.90;;;;;;4988709;28;20029;-80
2022/01/01 12:41:00;;;;;;;7.57;3.70;;;14.60;99.90;;;;;;5016182;28;20034;-81
2022/01/01 12:43:29;;;;;;;6.97;3.25;;;14.70;99.90;;;;;;4999963;28;20503;-80
2022/01/01 12:45:58;;;;;;;7.85;3.45;;;14.70;99.90;;;;;;5004055;28;20473;-79